Terminal Aerodrome Forecast
Issued by NWS Mt. Holly, NJ

Home | Current Version | Previous Version | Text Only | Print | Product List | Glossary On
Versions: 1 2 3 4 5 6 7 8 9 10 11 12 13 14 15 16 17 18 19 20 21 22
000
FTUS41 KPHI 281727
TAFTTN
TAF
KTTN 281727Z 2818/2918 13006KT P6SM SCT020 BKN040
      TEMPO 2901/2903 BKN010 OVC050
     FM290300 11008KT 4SM -SHRA BR OVC005
     FM290700 10006KT 2SM -SHRA BR OVC003
     FM291200 08006KT 4SM BR OVC005=

USA.gov is the U.S. government's official web portal to all federal, state and local government web resources and services.